Gerli, Argentina
Current Conditions -  °F | °C
As of 9:00 AM on Wednesday 28 Jan 2015 (Local Time) from SABE Reporting Station
Thunderstorm Thunderstorm  
Wind Chill: 21°   Ceiling: 1200
Heat Index: 21°   Visibility: 1.8mi
Dew Point: 20°   Wind: 23mph
Humidity: 94%   Direction: 140°SE
Pressure: 29.8"   Gusts: 47mph
Location:  34.7°S, 58.38°W
Report Text: SABE 281200Z 14020G41KT 3000 -TSRA BKN012FEW050CB OVC050 21/20 Q1009
Loading
Personal Weather Stations






























Interactive Weather Map New forecast layout! Learn more

10-Day Weather Forecast

Advertisements
Track Severe Weather on mobile